Time;durP1;ratioP1;P1;durP2;ratioP2;P2;SDS_P1;SDS_P2;PMS_P1;PMS_P2;Temp;Humidity;BMP_temperature;BMP_pressure;BME280_temperature;BME280_humidity;BME280_pressure;Samples;Min_cycle;Max_cycle;Signal;HPM_P1;HPM_P2
2021/12/03 00:04:03;;;;;;;12.10;5.20;;;;;;;-0.61;71.96;98433.80;228620;1193;139144;-64
2021/12/03 00:09:07;;;;;;;12.90;5.30;;;;;;;-0.59;72.02;98436.13;228948;1193;139904;-65
2021/12/03 00:14:11;;;;;;;18.70;6.00;;;;;;;-0.50;71.85;98445.35;229466;1193;139586;-64
2021/12/03 00:19:14;;;;;;;10.10;5.30;;;;;;;-0.41;72.08;98455.26;229230;1193;139320;-65
2021/12/03 00:24:17;;;;;;;12.50;7.20;;;;;;;-0.35;72.27;98465.44;228825;1193;139659;-65
2021/12/03 00:29:19;;;;;;;12.40;5.90;;;;;;;-0.29;72.41;98476.06;228988;1193;141486;-65
2021/12/03 00:34:23;;;;;;;9.10;4.30;;;;;;;-0.26;72.41;98483.70;227839;1193;140136;-64
2021/12/03 00:39:27;;;;;;;7.90;4.10;;;;;;;-0.24;72.40;98484.31;229647;1193;140876;-65
2021/12/03 00:44:31;;;;;;;14.00;5.70;;;;;;;-0.19;72.15;98495.10;228856;1193;139924;-65
2021/12/03 00:49:34;;;;;;;10.10;5.70;;;;;;;-0.14;72.30;98490.32;230052;1193;140061;-67
2021/12/03 00:54:36;;;;;;;8.10;3.50;;;;;;;-0.07;72.18;98502.52;230339;1193;140775;-68
2021/12/03 00:59:39;;;;;;;12.40;5.00;;;;;;;-0.03;72.41;98506.21;229840;1193;140870;-67
2021/12/03 01:04:42;;;;;;;7.90;4.40;;;;;;;0.02;72.26;98512.52;230464;1193;139678;-67
2021/12/03 01:09:44;;;;;;;7.80;3.90;;;;;;;0.08;71.90;98507.39;229850;1193;139114;-66
2021/12/03 01:14:46;;;;;;;10.50;4.90;;;;;;;0.17;72.15;98517.45;230214;1193;140719;-66
2021/12/03 01:19:49;;;;;;;7.00;4.30;;;;;;;0.22;72.23;98519.58;229267;1193;140131;-66
2021/12/03 01:24:52;;;;;;;6.60;4.20;;;;;;;0.24;72.31;98524.18;230115;1193;139240;-66
2021/12/03 01:29:55;;;;;;;7.00;3.30;;;;;;;0.23;72.17;98531.88;229135;1193;140174;-65
2021/12/03 01:34:58;;;;;;;12.40;5.00;;;;;;;0.22;72.10;98532.27;229136;1193;139524;-65
2021/12/03 01:40:01;;;;;;;9.00;5.70;;;;;;;0.25;72.18;98539.06;228447;1193;141230;-65
2021/12/03 01:45:08;;;;;;;8.60;4.80;;;;;;;0.25;72.20;98542.44;229386;1193;139393;-65
2021/12/03 01:50:12;;;;;;;9.60;4.90;;;;;;;0.21;72.26;98545.73;229688;1193;139583;-65
2021/12/03 01:55:15;;;;;;;10.60;5.20;;;;;;;0.17;72.69;98555.28;229042;1193;140156;-66
2021/12/03 02:00:39;;;;;;;9.90;4.90;;;;;;;0.22;72.42;98562.27;228458;1193;139981;-65
2021/12/03 02:05:43;;;;;;;11.50;5.10;;;;;;;0.25;72.65;98565.42;228795;1193;139296;-65
2021/12/03 02:10:46;;;;;;;7.70;5.80;;;;;;;0.22;72.76;98570.58;228831;1193;150704;-65
2021/12/03 02:15:49;;;;;;;9.50;5.00;;;;;;;0.17;72.56;98583.45;228606;1193;139065;-65
2021/12/03 02:20:55;;;;;;;8.00;4.30;;;;;;;0.12;73.05;98593.55;228919;1193;140238;-65
2021/12/03 02:25:58;;;;;;;8.30;4.70;;;;;;;0.13;73.20;98600.37;229168;1193;231633;-66
2021/12/03 02:31:04;;;;;;;10.90;5.60;;;;;;;0.18;73.27;98609.95;228035;1193;159708;-65
2021/12/03 02:36:09;;;;;;;6.90;4.90;;;;;;;0.19;73.57;98617.81;229498;1193;140703;-66
2021/12/03 02:41:13;;;;;;;8.10;5.40;;;;;;;0.19;73.66;98619.18;229531;1193;138405;-65
2021/12/03 02:46:16;;;;;;;7.60;5.60;;;;;;;0.21;73.53;98629.20;229247;1193;140449;-66
2021/12/03 02:51:27;;;;;;;7.30;5.20;;;;;;;0.22;73.36;98636.98;229767;1193;139400;-65
2021/12/03 02:56:30;;;;;;;9.00;5.60;;;;;;;0.27;73.74;98638.58;229698;1193;141098;-66
2021/12/03 03:01:33;;;;;;;14.80;6.00;;;;;;;0.29;73.96;98648.11;230143;1193;140183;-65
2021/12/03 03:06:36;;;;;;;7.30;4.50;;;;;;;0.34;73.87;98662.58;230477;1193;139791;-66
2021/12/03 03:11:39;;;;;;;8.30;5.50;;;;;;;0.32;74.01;98667.45;230358;1193;140572;-66
2021/12/03 03:16:42;;;;;;;12.00;6.40;;;;;;;0.36;73.81;98677.96;229697;1193;141384;-66
2021/12/03 03:21:46;;;;;;;11.40;5.20;;;;;;;0.42;73.71;98688.07;229337;1193;140830;-65
2021/12/03 03:26:51;;;;;;;10.20;6.30;;;;;;;0.43;74.00;98696.59;230026;1192;140093;-66
2021/12/03 03:31:55;;;;;;;6.80;5.10;;;;;;;0.41;74.07;98698.42;228061;1193;140065;-65
2021/12/03 03:36:57;;;;;;;7.00;4.30;;;;;;;0.39;73.63;98700.08;229009;1193;140766;-66
2021/12/03 03:42:00;;;;;;;5.00;4.20;;;;;;;0.42;73.88;98701.58;227686;1193;143837;-66
2021/12/03 03:47:05;;;;;;;9.00;4.70;;;;;;;0.41;73.77;98707.86;228284;1193;139181;-65
2021/12/03 03:52:11;;;;;;;6.50;4.10;;;;;;;0.35;73.93;98715.34;228984;1193;139274;-66
2021/12/03 03:57:15;;;;;;;6.90;4.40;;;;;;;0.28;73.62;98728.74;228986;1193;139621;-65
2021/12/03 04:02:19;;;;;;;7.00;4.20;;;;;;;0.26;73.80;98733.09;227996;1192;138813;-65
2021/12/03 04:07:22;;;;;;;6.40;4.60;;;;;;;0.28;73.65;98739.77;228754;1193;140261;-64
2021/12/03 04:12:25;;;;;;;9.70;5.40;;;;;;;0.27;73.94;98746.58;228389;1180;141223;-64
2021/12/03 04:17:28;;;;;;;5.10;4.50;;;;;;;0.26;74.13;98749.14;228013;1193;139361;-64
2021/12/03 04:22:34;;;;;;;6.20;4.40;;;;;;;0.21;73.84;98753.27;228644;1193;139605;-65
2021/12/03 04:27:38;;;;;;;4.10;3.50;;;;;;;0.18;74.16;98760.53;228524;1193;139719;-64
2021/12/03 04:32:41;;;;;;;8.30;4.40;;;;;;;0.16;74.14;98761.61;228878;1193;140180;-65
2021/12/03 04:37:45;;;;;;;4.80;3.90;;;;;;;0.19;74.00;98763.36;228157;1193;141749;-65
2021/12/03 04:42:52;;;;;;;4.60;3.50;;;;;;;0.12;73.64;98767.18;229116;1193;141277;-65
2021/12/03 04:47:57;;;;;;;6.80;4.40;;;;;;;-0.01;73.40;98770.96;229369;1192;139826;-65
2021/12/03 04:53:00;;;;;;;6.50;4.20;;;;;;;-0.15;73.64;98777.34;229258;1193;140359;-65
2021/12/03 04:58:04;;;;;;;5.30;4.10;;;;;;;-0.29;73.52;98781.73;229393;1193;140001;-65
2021/12/03 05:03:08;;;;;;;4.90;4.30;;;;;;;-0.42;73.41;98782.30;230340;1193;139742;-66
2021/12/03 05:08:12;;;;;;;4.90;4.40;;;;;;;-0.50;73.73;98785.73;230139;1193;139617;-65
2021/12/03 05:13:40;;;;;;;5.00;4.50;;;;;;;-0.54;73.82;98787.13;229450;1193;140450;-66
2021/12/03 05:18:46;;;;;;;10.00;5.20;;;;;;;-0.62;73.98;98788.11;230403;1193;139361;-67
2021/12/03 05:23:50;;;;;;;4.70;3.90;;;;;;;-0.69;74.11;98789.05;228705;1193;150460;-66
2021/12/03 05:28:53;;;;;;;6.10;4.30;;;;;;;-0.77;74.06;98796.82;230098;1192;141723;-66
2021/12/03 05:33:57;;;;;;;5.50;4.00;;;;;;;-0.85;74.14;98812.13;228271;1192;140897;-65
2021/12/03 05:38:59;;;;;;;4.70;3.80;;;;;;;-0.93;73.99;98821.11;228890;1193;138988;-66
2021/12/03 05:44:07;;;;;;;6.50;3.30;;;;;;;-0.91;74.46;98833.11;228703;1193;140819;-65
2021/12/03 05:49:10;;;;;;;9.60;6.20;;;;;;;-0.83;74.92;98836.15;229237;1186;139701;-66
2021/12/03 05:54:13;;;;;;;5.00;3.90;;;;;;;-0.75;75.03;98840.43;227899;1193;139695;-65
2021/12/03 05:59:16;;;;;;;6.30;4.20;;;;;;;-0.70;75.16;98853.55;228827;1193;140843;-66
2021/12/03 06:04:19;;;;;;;5.30;2.90;;;;;;;-0.70;75.03;98861.41;227815;1193;220004;-64
2021/12/03 06:09:23;;;;;;;6.60;5.00;;;;;;;-0.71;75.31;98867.70;227901;1193;140193;-66
2021/12/03 06:14:27;;;;;;;6.60;4.70;;;;;;;-0.72;74.83;98879.74;228576;1193;141350;-65
2021/12/03 06:19:29;;;;;;;7.10;4.30;;;;;;;-0.76;74.98;98879.80;227470;1194;140635;-64
2021/12/03 06:24:32;;;;;;;6.60;4.60;;;;;;;-0.81;74.84;98888.07;227957;1193;141137;-65
2021/12/03 06:29:35;;;;;;;5.20;4.80;;;;;;;-0.88;74.96;98892.88;228456;1193;139815;-65
2021/12/03 06:34:42;;;;;;;7.60;4.50;;;;;;;-0.97;75.16;98893.44;228622;1193;141003;-64
2021/12/03 06:39:44;;;;;;;4.70;4.30;;;;;;;-1.08;74.78;98896.16;228093;1193;141659;-63
2021/12/03 06:44:48;;;;;;;6.20;4.30;;;;;;;-1.14;74.80;98905.54;228443;1193;140233;-65
2021/12/03 06:49:51;;;;;;;8.60;4.60;;;;;;;-1.17;75.06;98913.94;229644;1193;141352;-66
2021/12/03 06:55:01;;;;;;;9.60;4.90;;;;;;;-1.19;75.03;98923.13;227981;1193;140563;-65
2021/12/03 07:00:05;;;;;;;4.80;4.20;;;;;;;-1.24;75.16;98924.16;229654;1193;140527;-66
2021/12/03 07:05:08;;;;;;;7.60;4.50;;;;;;;-1.30;75.27;98926.98;230453;1193;139687;-67
2021/12/03 07:10:10;;;;;;;6.10;4.80;;;;;;;-1.30;75.04;98933.11;230360;1192;139834;-66
2021/12/03 07:15:12;;;;;;;7.20;4.60;;;;;;;-1.27;75.29;98933.65;230042;1193;140820;-66
2021/12/03 07:20:15;;;;;;;5.80;4.80;;;;;;;-1.22;75.36;98944.69;229991;1193;139967;-70
2021/12/03 07:25:17;;;;;;;9.40;4.90;;;;;;;-1.15;75.62;98950.67;230352;1192;140116;-67
2021/12/03 07:30:20;;;;;;;5.60;4.10;;;;;;;-1.10;75.53;98952.16;230002;1192;139898;-66
2021/12/03 07:35:22;;;;;;;5.60;5.00;;;;;;;-1.04;75.17;98959.45;228618;1193;140783;-66
2021/12/03 07:40:24;;;;;;;11.50;6.00;;;;;;;-0.98;75.35;98965.45;229235;1193;139265;-66
2021/12/03 07:45:26;;;;;;;8.30;5.30;;;;;;;-0.95;75.42;98964.24;228700;1193;140063;-66
2021/12/03 07:50:33;;;;;;;7.20;4.70;;;;;;;-0.94;75.50;98955.97;229312;1192;139784;-67
2021/12/03 07:55:37;;;;;;;8.70;4.20;;;;;;;-0.94;75.49;98958.11;227429;1193;139435;-65
2021/12/03 08:00:40;;;;;;;6.30;4.40;;;;;;;-0.95;75.65;98956.00;227947;1193;232378;-65
2021/12/03 08:05:52;;;;;;;4.50;3.30;;;;;;;-0.91;75.48;98958.89;228852;1192;140122;-66
2021/12/03 08:10:55;;;;;;;5.90;4.20;;;;;;;-0.92;75.33;98966.10;228255;1193;139181;-64
2021/12/03 08:15:59;;;;;;;7.90;4.00;;;;;;;-0.91;75.42;98971.05;229031;1193;138755;-64
2021/12/03 08:21:03;;;;;;;7.30;4.70;;;;;;;-0.83;75.56;98970.51;228614;1195;140248;-65
2021/12/03 08:26:06;;;;;;;15.00;6.40;;;;;;;-0.72;75.42;98975.79;228101;1192;141520;-65
2021/12/03 08:31:14;;;;;;;7.10;4.50;;;;;;;-0.65;75.65;98979.64;229053;1193;141258;-65
2021/12/03 08:36:17;;;;;;;6.90;4.30;;;;;;;-0.58;75.50;98983.90;228410;1193;139799;-66
2021/12/03 08:41:20;;;;;;;7.20;4.00;;;;;;;-0.55;75.33;98975.88;228494;1193;139473;-67
2021/12/03 08:46:29;;;;;;;8.00;3.90;;;;;;;-0.49;75.15;98972.38;229516;1193;141304;-66
2021/12/03 08:51:50;;;;;;;5.50;4.30;;;;;;;-0.39;75.32;98972.39;227931;1193;140258;-65
2021/12/03 08:56:54;;;;;;;5.40;3.20;;;;;;;-0.20;75.35;98971.15;228644;1193;140026;-65
2021/12/03 09:01:56;;;;;;;5.80;3.50;;;;;;;-0.09;75.33;98967.47;229252;1193;138927;-66
2021/12/03 09:07:04;;;;;;;6.30;3.90;;;;;;;0.03;75.08;98963.74;229666;1193;139791;-65
2021/12/03 09:12:07;;;;;;;7.80;6.10;;;;;;;0.08;74.33;98969.52;230296;1193;139927;-66
2021/12/03 09:27:45;;;;;;;9.80;3.70;;;;;;;0.24;74.18;98969.27;228564;1193;139923;-65
2021/12/03 09:32:54;;;;;;;11.40;3.40;;;;;;;0.36;74.17;98964.98;229073;1192;139377;-65
2021/12/03 09:38:05;;;;;;;5.60;3.20;;;;;;;0.44;73.82;98963.66;229312;1193;139338;-65
2021/12/03 09:43:09;;;;;;;3.50;2.60;;;;;;;0.48;73.99;98964.95;229389;1194;139801;-64
2021/12/03 09:48:29;;;;;;;4.90;2.60;;;;;;;0.61;73.69;98967.44;228575;1193;139178;-64
2021/12/03 09:54:09;;;;;;;6.60;3.00;;;;;;;0.72;73.53;98964.54;228790;1193;138595;-63
2021/12/03 10:15:08;;;;;;;5.40;2.70;;;;;;;1.09;73.12;98947.02;227740;1193;138662;-64
2021/12/03 10:41:56;;;;;;;8.30;2.80;;;;;;;1.33;72.87;98949.59;228624;1193;138628;-63
2021/12/03 10:52:52;;;;;;;4.70;4.20;;;;;;;1.58;72.47;98947.83;229477;1193;140511;-66
2021/12/03 11:04:22;;;;;;;3.90;2.70;;;;;;;1.69;71.94;98939.76;230038;1193;140296;-65
2021/12/03 11:58:52;;;;;;;11.50;2.80;;;;;;;2.88;69.93;98952.88;229004;1193;139503;-64
2021/12/03 12:21:23;;;;;;;6.50;2.70;;;;;;;3.16;69.80;98972.44;229010;1193;138787;-66
2021/12/03 12:32:49;;;;;;;7.20;2.20;;;;;;;3.09;69.02;98980.07;228498;1193;140186;-65
2021/12/03 12:42:50;;;;;;;8.00;2.90;;;;;;;2.98;68.93;98978.23;228895;1193;139548;-66
2021/12/03 12:49:34;;;;;;;8.10;2.80;;;;;;;2.95;68.97;98981.07;228292;1193;139893;-65
2021/12/03 13:38:56;;;;;;;14.80;5.00;;;;;;;2.52;68.75;99021.56;229834;1193;138733;-67
2021/12/03 14:05:08;;;;;;;4.30;2.50;;;;;;;1.89;69.51;99059.44;229095;1193;139828;-65
2021/12/03 14:37:36;;;;;;;6.60;3.20;;;;;;;1.90;70.19;99082.42;228309;1193;138817;-64
2021/12/03 14:42:58;;;;;;;6.90;3.20;;;;;;;1.83;70.00;99087.20;227734;1186;139820;-66
2021/12/03 15:20:03;;;;;;;14.30;4.00;;;;;;;1.33;70.37;99122.08;230354;1193;139021;-66
2021/12/03 15:25:10;;;;;;;8.20;3.30;;;;;;;1.30;70.45;99121.44;229452;1193;140467;-66
2021/12/03 15:40:54;;;;;;;4.70;2.80;;;;;;;1.20;70.66;99144.48;228764;1193;141222;-65
2021/12/03 16:23:06;;;;;;;6.20;3.60;;;;;;;1.18;70.26;99174.73;228511;1193;229642;-65
2021/12/03 16:54:52;;;;;;;8.30;3.80;;;;;;;0.66;69.98;99185.53;228003;1193;234859;-65
2021/12/03 16:59:57;;;;;;;6.30;3.40;;;;;;;0.62;69.90;99191.17;228752;1193;141619;-65
2021/12/03 17:32:08;;;;;;;14.60;7.20;;;;;;;0.07;69.87;99186.44;230250;1193;138864;-66
2021/12/03 17:47:21;;;;;;;13.60;8.50;;;;;;;-0.05;70.00;99197.59;227517;1193;140836;-66
2021/12/03 18:02:46;;;;;;;14.30;8.10;;;;;;;-0.35;70.37;99207.08;228762;1193;139528;-67
2021/12/03 18:13:42;;;;;;;18.30;9.70;;;;;;;-0.40;70.50;99208.45;228012;1193;139477;-65
2021/12/03 18:55:33;;;;;;;19.50;8.80;;;;;;;-0.79;70.72;99216.86;228396;1193;139958;-66
2021/12/03 19:00:41;;;;;;;14.50;6.90;;;;;;;-0.82;70.59;99222.02;228091;1193;139221;-65
2021/12/03 19:11:20;;;;;;;17.20;8.80;;;;;;;-0.95;70.91;99218.30;229672;1193;126476;-65
2021/12/03 19:16:25;;;;;;;20.10;9.90;;;;;;;-1.00;70.48;99214.18;228795;1193;140123;-65
2021/12/03 19:21:38;;;;;;;14.80;7.30;;;;;;;-1.00;70.47;99218.07;229526;1193;139552;-65
2021/12/03 19:26:51;;;;;;;15.40;9.00;;;;;;;-0.97;70.53;99220.84;229937;1193;140672;-63
2021/12/03 19:31:54;;;;;;;21.40;9.60;;;;;;;-0.95;70.59;99219.70;230235;1193;141518;-63
2021/12/03 19:37:00;;;;;;;14.30;9.00;;;;;;;-0.94;70.38;99225.79;230199;1193;141427;-63
2021/12/03 19:42:11;;;;;;;12.20;6.40;;;;;;;-0.98;70.52;99226.69;230306;1193;150654;-64
2021/12/03 19:47:19;;;;;;;14.90;6.90;;;;;;;-1.02;70.12;99227.86;228701;1193;139135;-64
2021/12/03 19:52:28;;;;;;;32.80;12.20;;;;;;;-1.06;69.93;99226.30;230155;1193;138968;-64
2021/12/03 19:57:31;;;;;;;38.70;25.40;;;;;;;-1.07;69.96;99225.27;228973;1193;142626;-63
2021/12/03 20:02:34;;;;;;;16.30;9.40;;;;;;;-1.04;69.58;99221.27;228583;1193;139530;-63
2021/12/03 20:07:37;;;;;;;20.80;10.80;;;;;;;-1.05;69.81;99222.70;228645;1193;140869;-66
2021/12/03 20:12:39;;;;;;;20.10;8.50;;;;;;;-1.06;69.75;99217.40;228668;1193;139806;-65
2021/12/03 20:17:47;;;;;;;12.90;8.50;;;;;;;-1.10;70.05;99220.73;228245;1193;139580;-65
2021/12/03 20:28:12;;;;;;;15.60;7.90;;;;;;;-1.20;70.01;99219.92;228523;1193;139245;-65
2021/12/03 20:38:39;;;;;;;15.80;7.00;;;;;;;-1.14;69.77;99224.41;228560;1193;141282;-64
2021/12/03 20:44:02;;;;;;;15.50;8.00;;;;;;;-1.13;69.78;99218.30;227671;1193;139778;-62
2021/12/03 20:49:21;;;;;;;14.20;6.90;;;;;;;-1.17;69.83;99217.98;228206;1193;141203;-63
2021/12/03 20:54:29;;;;;;;11.10;5.70;;;;;;;-1.21;69.97;99213.25;227746;1193;140392;-66
2021/12/03 21:09:58;;;;;;;12.30;6.00;;;;;;;-1.09;70.31;99197.23;227697;1193;143001;-65
2021/12/03 21:15:11;;;;;;;25.30;9.80;;;;;;;-1.05;70.02;99189.13;227965;1193;139706;-66
2021/12/03 21:20:25;;;;;;;13.80;8.10;;;;;;;-1.04;70.08;99179.73;229265;1193;139902;-64
2021/12/03 21:25:38;;;;;;;15.30;7.30;;;;;;;-1.08;69.86;99179.27;228204;1193;140513;-66
2021/12/03 21:30:50;;;;;;;18.40;8.90;;;;;;;-1.12;69.67;99178.57;230244;1187;141362;-65
2021/12/03 21:41:23;;;;;;;22.90;10.00;;;;;;;-1.22;69.74;99177.59;230459;1193;140224;-68
2021/12/03 21:46:28;;;;;;;18.80;8.90;;;;;;;-1.25;69.60;99170.43;229805;1193;141843;-66
2021/12/03 21:51:32;;;;;;;21.20;10.90;;;;;;;-1.25;69.50;99169.58;229601;1193;140842;-65
2021/12/03 21:56:36;;;;;;;22.30;8.40;;;;;;;-1.28;69.69;99161.36;229923;1193;140822;-66
2021/12/03 22:01:40;;;;;;;14.50;8.30;;;;;;;-1.32;70.04;99155.07;228463;1193;140405;-65
2021/12/03 22:06:43;;;;;;;17.50;8.90;;;;;;;-1.38;69.87;99159.67;229195;1192;139857;-66
2021/12/03 22:11:46;;;;;;;15.10;8.10;;;;;;;-1.46;70.28;99149.09;228697;1193;139513;-65
2021/12/03 22:16:50;;;;;;;18.10;7.80;;;;;;;-1.53;70.43;99147.67;228057;1193;139113;-65
2021/12/03 22:21:53;;;;;;;14.40;6.70;;;;;;;-1.59;70.56;99141.21;229137;1193;142184;-64
2021/12/03 22:26:56;;;;;;;16.80;7.80;;;;;;;-1.65;70.62;99137.05;228942;1193;139055;-65
2021/12/03 22:31:59;;;;;;;16.20;9.10;;;;;;;-1.60;70.63;99135.11;228668;1193;140053;-65
2021/12/03 22:37:03;;;;;;;12.00;8.60;;;;;;;-1.59;70.70;99124.48;228641;1187;140061;-64
2021/12/03 22:42:06;;;;;;;16.00;7.80;;;;;;;-1.60;70.67;99115.86;227831;1193;141076;-65
2021/12/03 22:52:22;;;;;;;16.90;7.60;;;;;;;-1.67;70.93;99098.19;228573;1192;142758;-65
2021/12/03 22:57:25;;;;;;;15.90;7.90;;;;;;;-1.71;70.96;99100.56;228968;1192;138849;-65
2021/12/03 23:02:28;;;;;;;11.70;6.70;;;;;;;-1.70;70.76;99104.44;228560;1193;140547;-63
2021/12/03 23:07:31;;;;;;;15.20;7.90;;;;;;;-1.69;70.73;99096.99;229512;1193;140067;-64
2021/12/03 23:12:34;;;;;;;16.90;7.90;;;;;;;-1.68;70.92;99094.86;229585;1193;139087;-65
2021/12/03 23:17:37;;;;;;;16.00;6.40;;;;;;;-1.70;70.70;99092.91;230234;1193;140330;-65
2021/12/03 23:22:40;;;;;;;10.00;6.50;;;;;;;-1.76;70.60;99087.64;229949;1193;139539;-65
2021/12/03 23:27:44;;;;;;;15.90;6.00;;;;;;;-1.79;70.59;99087.48;229055;1193;141404;-64
2021/12/03 23:32:47;;;;;;;13.20;7.00;;;;;;;-1.79;70.73;99074.30;229668;1193;139869;-64
2021/12/03 23:37:52;;;;;;;9.30;5.80;;;;;;;-1.81;70.65;99065.48;230290;1193;139923;-65
2021/12/03 23:42:55;;;;;;;17.10;7.60;;;;;;;-1.84;70.60;99060.16;227796;1193;140847;-65
2021/12/03 23:47:58;;;;;;;15.50;8.60;;;;;;;-1.80;70.49;99055.54;229981;1193;140814;-65
2021/12/03 23:53:01;;;;;;;13.70;7.80;;;;;;;-1.75;70.50;99057.92;229778;1193;141614;-65
2021/12/03 23:58:06;;;;;;;15.10;8.70;;;;;;;-1.73;70.62;99055.39;230058;1192;139515;-65
